Time,TemperatureF,DewpointF,PressureIn,WindDirection,WindDirectionDegrees,WindSpeedMPH,WindSpeedGustMPH,Humidity,HourlyPrecipIn,Conditions,Clouds,dailyrainin,SoftwareType,DateUTC
2013-10-19 08:07:00,74.0,72.2,29.91,South,169,1.9,3.5,94,0.00,CLR,,0.00,WeatherDisplay:10.37,2013-10-19 12:07:00,
2013-10-19 08:08:00,74.0,72.2,29.91,SSE,160,1.8,3.5,94,0.00,CLR,,0.00,WeatherDisplay:10.37,2013-10-19 12:08:00,
2013-10-19 08:10:00,74.1,71.9,29.91,SE,134,2.0,3.5,93,0.00,CLR,,0.00,WeatherDisplay:10.37,2013-10-19 12:10:00,
2013-10-19 08:15:00,74.1,71.9,29.91,ESE,122,1.5,3.5,93,0.00,CLR,,0.00,WeatherDisplay:10.37,2013-10-19 12:15:00,
2013-10-19 08:20:00,74.2,72.0,29.91,SSE,155,1.1,3.5,93,0.00,CLR,,0.00,WeatherDisplay:10.37,2013-10-19 12:20:00,
2013-10-19 08:25:00,74.3,72.1,29.91,South,171,1.7,2.3,93,0.00,CLR,,0.00,WeatherDisplay:10.37,2013-10-19 12:25:00,
2013-10-19 08:30:00,74.4,72.2,29.92,SE,124,0.8,2.3,93,0.00,CLR,,0.00,WeatherDisplay:10.37,2013-10-19 12:30:00,
2013-10-19 08:35:00,74.5,72.0,29.92,SSE,150,0.5,1.2,92,0.00,CLR,,0.00,WeatherDisplay:10.37,2013-10-19 12:35:00,
2013-10-19 08:40:00,74.6,72.1,29.92,SE,136,0.0,1.2,92,0.00,CLR,,0.00,WeatherDisplay:10.37,2013-10-19 12:40:00,
2013-10-19 08:45:00,74.7,72.2,29.92,SE,125,0.5,1.2,92,0.00,CLR,,0.00,WeatherDisplay:10.37,2013-10-19 12:45:00,
2013-10-19 08:50:00,74.9,72.4,29.92,SSE,153,0.2,1.2,92,0.00,CLR,,0.00,WeatherDisplay:10.37,2013-10-19 12:50:00,
2013-10-19 08:55:00,75.0,72.5,29.92,SSE,163,1.9,3.0,92,0.00,CLR,,0.00,WeatherDisplay:10.37,2013-10-19 12:55:00,
2013-10-19 09:00:00,75.1,72.3,29.92,SSE,166,2.0,3.0,91,0.00,CLR,,0.00,WeatherDisplay:10.37,2013-10-19 13:00:00,
2013-10-19 09:05:00,75.2,72.7,29.92,SSE,163,1.5,3.5,92,0.00,OVC,,0.00,WeatherDisplay:10.37,2013-10-19 13:05:00,
2013-10-19 09:10:00,75.4,72.6,29.92,SSE,148,1.0,2.3,91,0.00,OVC,,0.00,WeatherDisplay:10.37,2013-10-19 13:10:00,
2013-10-19 09:15:00,75.6,72.8,29.92,ESE,122,0.7,2.3,91,0.00,OVC,,0.00,WeatherDisplay:10.37,2013-10-19 13:15:00,
2013-10-19 09:20:00,75.9,73.1,29.92,SSE,149,0.9,3.0,91,0.00,OVC,,0.00,WeatherDisplay:10.37,2013-10-19 13:20:00,
2013-10-19 09:25:00,76.2,73.1,29.92,ESE,122,3.0,4.6,90,0.00,OVC,,0.00,WeatherDisplay:10.37,2013-10-19 13:25:00,
2013-10-19 09:30:00,76.6,73.1,29.92,SE,143,3.0,4.6,89,0.00,OVC,,0.00,WeatherDisplay:10.37,2013-10-19 13:30:00,
2013-10-19 09:35:00,76.9,73.4,29.93,SSE,166,2.1,4.6,89,0.00,OVC,,0.00,WeatherDisplay:10.37,2013-10-19 13:35:00,
2013-10-19 09:40:00,77.2,73.4,29.93,South,171,2.3,3.5,88,0.00,OVC,,0.00,WeatherDisplay:10.37,2013-10-19 13:40:00,
2013-10-19 10:18:00,79.5,74.2,29.93,SSE,158,3.4,6.0,84,0.00,OVC,,0.00,WeatherDisplay:10.37,2013-10-19 14:18:00,
2013-10-19 10:23:00,79.8,74.2,29.93,SW,221,4.4,6.9,83,0.00,OVC,,0.00,WeatherDisplay:10.37,2013-10-19 14:23:00,
2013-10-19 10:28:00,80.2,74.2,29.93,ESE,122,3.2,4.6,82,0.00,OVC,,0.00,WeatherDisplay:10.37,2013-10-19 14:28:00,
2013-10-19 10:33:00,80.8,74.8,29.93,SW,218,0.9,2.3,82,0.00,OVC,,0.00,WeatherDisplay:10.37,2013-10-19 14:33:00,
2013-10-19 10:38:00,81.2,74.4,29.93,SE,135,3.6,5.8,80,0.00,OVC,,0.00,WeatherDisplay:10.37,2013-10-19 14:38:00,
2013-10-19 10:43:00,81.6,74.8,29.93,South,178,3.6,6.9,80,0.00,OVC,,0.00,WeatherDisplay:10.37,2013-10-19 14:43:00,
2013-10-19 10:48:00,81.7,74.5,29.93,South,174,3.8,8.1,79,0.00,OVC,,0.00,WeatherDisplay:10.37,2013-10-19 14:48:00,
2013-10-19 10:53:00,82.0,74.8,29.93,SSE,158,3.4,3.5,79,0.00,OVC,,0.00,WeatherDisplay:10.37,2013-10-19 14:53:00,
2013-10-19 10:58:00,82.4,74.8,29.93,South,170,2.3,5.8,78,0.00,OVC,,0.00,WeatherDisplay:10.37,2013-10-19 14:58:00,
2013-10-19 11:03:00,82.6,75.0,29.93,SSW,208,2.0,4.6,78,0.00,BKN,,0.00,WeatherDisplay:10.37,2013-10-19 15:03:00,
2013-10-19 11:08:00,82.8,75.2,29.93,ESE,105,1.2,2.3,78,0.00,BKN,,0.00,WeatherDisplay:10.37,2013-10-19 15:08:00,
2013-10-19 11:13:00,83.3,74.5,29.93,South,190,1.8,3.5,75,0.00,BKN,,0.00,WeatherDisplay:10.37,2013-10-19 15:13:00,
2013-10-19 11:18:00,83.8,74.6,29.93,SSW,194,2.5,3.5,74,0.00,BKN,,0.00,WeatherDisplay:10.37,2013-10-19 15:18:00,
2013-10-19 11:23:00,84.1,74.5,29.93,SW,225,4.6,6.9,73,0.00,BKN,,0.00,WeatherDisplay:10.37,2013-10-19 15:23:00,
2013-10-19 11:28:00,84.0,75.2,29.93,South,177,3.8,5.8,75,0.00,BKN,,0.00,WeatherDisplay:10.37,2013-10-19 15:28:00,
2013-10-19 11:33:00,84.0,75.2,29.93,South,176,5.8,8.1,75,0.00,BKN,,0.00,WeatherDisplay:10.37,2013-10-19 15:33:00,
2013-10-19 11:38:00,84.2,75.4,29.93,SSW,200,3.8,5.8,75,0.00,BKN,,0.00,WeatherDisplay:10.37,2013-10-19 15:38:00,
2013-10-19 11:43:00,84.3,74.7,29.93,SW,228,3.5,5.8,73,0.00,BKN,,0.00,WeatherDisplay:10.37,2013-10-19 15:43:00,
2013-10-19 11:48:00,84.5,75.7,29.93,SE,142,4.2,6.9,75,0.00,BKN,,0.00,WeatherDisplay:10.37,2013-10-19 15:48:00,
2013-10-19 11:53:00,85.2,75.6,29.93,SE,143,2.2,5.0,73,0.00,BKN,,0.00,WeatherDisplay:10.37,2013-10-19 15:53:00,
2013-10-19 11:58:00,85.6,75.1,29.93,SSE,162,0.8,2.3,71,0.00,BKN,,0.00,WeatherDisplay:10.37,2013-10-19 15:58:00,
2013-10-19 12:03:00,85.9,75.4,29.93,West,262,1.0,3.5,71,0.00,BKN,,0.00,WeatherDisplay:10.37,2013-10-19 16:03:00,
2013-10-19 12:08:00,85.6,75.1,29.92,SW,226,2.8,4.6,71,0.00,BKN,,0.00,WeatherDisplay:10.37,2013-10-19 16:08:00,
2013-10-19 12:13:00,85.2,75.1,29.92,SW,232,4.4,6.9,72,0.00,BKN,,0.00,WeatherDisplay:10.37,2013-10-19 16:13:00,
2013-10-19 12:18:00,85.4,74.9,29.92,SW,235,3.5,4.6,71,0.00,BKN,,0.00,WeatherDisplay:10.37,2013-10-19 16:18:00,
2013-10-19 12:23:00,85.3,74.8,29.92,West,262,2.9,4.6,71,0.00,BKN,,0.00,WeatherDisplay:10.37,2013-10-19 16:23:00,
2013-10-19 12:28:00,85.4,74.1,29.92,SE,139,3.9,6.0,69,0.00,BKN,,0.00,WeatherDisplay:10.37,2013-10-19 16:28:00,
2013-10-19 12:33:00,86.1,73.9,29.91,West,270,3.2,6.9,67,0.00,BKN,,0.00,WeatherDisplay:10.37,2013-10-19 16:33:00,
2013-10-19 12:38:00,85.9,74.1,29.91,South,176,1.8,3.5,68,0.00,BKN,,0.00,WeatherDisplay:10.37,2013-10-19 16:38:00,
2013-10-19 12:43:00,86.1,74.3,29.91,SSW,197,2.1,5.8,68,0.00,BKN,,0.00,WeatherDisplay:10.37,2013-10-19 16:43:00,
2013-10-19 12:48:00,86.4,73.7,29.91,SW,226,6.2,8.1,66,0.00,BKN,,0.00,WeatherDisplay:10.37,2013-10-19 16:48:00,
2013-10-19 12:53:00,86.3,74.0,29.91,West,281,2.4,5.0,67,0.00,BKN,,0.00,WeatherDisplay:10.37,2013-10-19 16:53:00,
2013-10-19 12:58:00,86.5,73.3,29.90,South,173,5.6,10.4,65,0.00,BKN,,0.00,WeatherDisplay:10.37,2013-10-19 16:58:00,
2013-10-19 13:03:00,86.7,74.4,29.90,ESE,108,4.5,8.1,67,0.00,OVC,,0.00,WeatherDisplay:10.37,2013-10-19 17:03:00,
2013-10-19 13:08:00,86.7,75.3,29.90,South,183,3.0,4.6,69,0.00,OVC,,0.00,WeatherDisplay:10.37,2013-10-19 17:08:00,
2013-10-19 13:13:00,86.1,73.0,29.90,SSE,162,6.6,8.1,65,0.00,OVC,,0.00,WeatherDisplay:10.37,2013-10-19 17:13:00,
2013-10-19 13:18:00,85.7,74.8,29.89,West,264,3.8,8.1,70,0.00,OVC,,0.00,WeatherDisplay:10.37,2013-10-19 17:18:00,
2013-10-19 13:23:00,85.9,75.4,29.89,West,261,3.2,6.0,71,0.00,OVC,,0.00,WeatherDisplay:10.37,2013-10-19 17:23:00,
2013-10-19 13:28:00,85.7,73.5,29.89,SW,225,6.2,10.4,67,0.00,OVC,,0.00,WeatherDisplay:10.37,2013-10-19 17:28:00,
2013-10-19 13:33:00,85.9,74.5,29.88,SSW,211,3.4,6.0,69,0.00,OVC,,0.00,WeatherDisplay:10.37,2013-10-19 17:33:00,
2013-10-19 13:38:00,86.0,73.3,29.88,South,186,4.1,6.9,66,0.00,OVC,,0.00,WeatherDisplay:10.37,2013-10-19 17:38:00,
2013-10-19 13:43:00,86.6,72.5,29.88,SW,235,2.6,5.8,63,0.00,OVC,,0.00,WeatherDisplay:10.37,2013-10-19 17:43:00,
2013-10-19 13:48:00,87.4,73.7,29.88,SSE,155,3.7,5.8,64,0.00,OVC,,0.00,WeatherDisplay:10.37,2013-10-19 17:48:00,
2013-10-19 13:53:00,87.3,72.2,29.88,WSW,257,6.4,10.4,61,0.00,OVC,,0.00,WeatherDisplay:10.37,2013-10-19 17:53:00,
2013-10-19 13:58:00,86.8,72.7,29.88,SSE,167,5.4,9.2,63,0.00,OVC,,0.00,WeatherDisplay:10.37,2013-10-19 17:58:00,
2013-10-19 14:03:00,86.6,74.3,29.87,SW,214,4.1,5.0,67,0.00,OVC,,0.00,WeatherDisplay:10.37,2013-10-19 18:03:00,
2013-10-19 14:08:00,86.8,74.1,29.87,SW,233,6.0,10.4,66,0.00,OVC,,0.00,WeatherDisplay:10.37,2013-10-19 18:08:00,
2013-10-19 14:13:00,86.9,73.3,29.87,SSE,165,6.0,9.2,64,0.00,OVC,,0.00,WeatherDisplay:10.37,2013-10-19 18:13:00,
2013-10-19 14:18:00,87.1,72.5,29.87,SW,215,2.5,3.5,62,0.00,OVC,,0.00,WeatherDisplay:10.37,2013-10-19 18:18:00,
2013-10-19 14:23:00,86.9,72.3,29.87,SW,219,4.2,6.9,62,0.00,OVC,,0.00,WeatherDisplay:10.37,2013-10-19 18:23:00,
2013-10-19 14:28:00,86.5,70.0,29.87,SW,222,5.3,9.2,58,0.00,OVC,,0.00,WeatherDisplay:10.37,2013-10-19 18:28:00,
2013-10-19 14:33:00,86.5,68.9,29.87,South,179,4.1,9.2,56,0.00,OVC,,0.00,WeatherDisplay:10.37,2013-10-19 18:33:00,
2013-10-19 14:38:00,86.9,70.8,29.86,WSW,255,2.6,5.8,59,0.00,OVC,,0.00,WeatherDisplay:10.37,2013-10-19 18:38:00,
2013-10-19 14:43:00,87.2,69.6,29.86,South,190,2.6,5.8,56,0.00,OVC,,0.00,WeatherDisplay:10.37,2013-10-19 18:43:00,
2013-10-19 14:48:00,87.5,70.4,29.86,SSW,202,4.6,7.0,57,0.00,OVC,,0.00,WeatherDisplay:10.37,2013-10-19 18:48:00,
2013-10-19 14:54:00,87.3,72.7,29.86,SW,224,3.0,6.9,62,0.00,OVC,,0.00,WeatherDisplay:10.37,2013-10-19 18:54:00,
2013-10-19 14:59:00,87.6,72.5,29.86,SW,225,4.7,6.9,61,0.00,OVC,,0.00,WeatherDisplay:10.37,2013-10-19 18:59:00,
2013-10-19 15:04:00,87.3,70.7,29.86,SW,222,5.1,9.0,58,0.00,CLR,,0.00,WeatherDisplay:10.37,2013-10-19 19:04:00,
2013-10-19 15:09:00,86.7,71.6,29.86,SSW,208,5.4,7.0,61,0.00,CLR,,0.00,WeatherDisplay:10.37,2013-10-19 19:09:00,
2013-10-19 15:14:00,86.5,71.5,29.86,WSW,257,3.5,10.4,61,0.00,CLR,,0.00,WeatherDisplay:10.37,2013-10-19 19:14:00,
2013-10-19 15:18:00,86.8,72.2,29.86,SSW,194,3.6,9.2,62,0.00,CLR,,0.00,WeatherDisplay:10.37,2013-10-19 19:18:00,
2013-10-19 15:24:00,86.6,73.0,29.86,South,172,2.0,6.9,64,0.00,CLR,,0.00,WeatherDisplay:10.37,2013-10-19 19:24:00,
2013-10-19 15:29:00,86.9,73.7,29.86,South,191,2.9,3.5,65,0.00,CLR,,0.00,WeatherDisplay:10.37,2013-10-19 19:29:00,
2013-10-19 15:34:00,87.1,73.9,29.86,SSW,198,5.8,9.2,65,0.00,CLR,,0.00,WeatherDisplay:10.37,2013-10-19 19:34:00,
2013-10-19 15:39:00,86.6,74.3,29.86,SW,226,3.7,10.0,67,0.00,CLR,,0.00,WeatherDisplay:10.37,2013-10-19 19:39:00,
2013-10-19 15:44:00,86.8,74.5,29.86,South,186,5.4,7.0,67,0.00,CLR,,0.00,WeatherDisplay:10.37,2013-10-19 19:44:00,
2013-10-19 15:49:00,86.0,75.1,29.86,West,262,4.8,6.9,70,0.00,CLR,,0.00,WeatherDisplay:10.37,2013-10-19 19:49:00,
2013-10-19 15:54:00,85.3,76.1,29.86,SW,221,3.9,6.9,74,0.00,CLR,,0.00,WeatherDisplay:10.37,2013-10-19 19:54:00,
2013-10-19 15:59:00,85.0,75.0,29.86,SSW,208,5.2,9.2,72,0.00,CLR,,0.00,WeatherDisplay:10.37,2013-10-19 19:59:00,
2013-10-19 16:04:00,84.6,75.8,29.86,WSW,252,5.2,8.0,75,0.00,CLR,,0.00,WeatherDisplay:10.37,2013-10-19 20:04:00,
2013-10-19 16:09:00,84.2,75.8,29.85,SSW,207,4.8,10.4,76,0.00,CLR,,0.00,WeatherDisplay:10.37,2013-10-19 20:09:00,
2013-10-19 16:14:00,83.7,76.1,29.86,SSW,200,1.8,4.0,78,0.00,CLR,,0.00,WeatherDisplay:10.37,2013-10-19 20:14:00,
2013-10-19 16:19:00,84.1,76.9,29.85,West,259,0.6,2.3,79,0.00,CLR,,0.00,WeatherDisplay:10.37,2013-10-19 20:19:00,
2013-10-19 16:24:00,84.6,75.8,29.85,SW,231,2.2,5.8,75,0.00,CLR,,0.00,WeatherDisplay:10.37,2013-10-19 20:24:00,
2013-10-19 16:29:00,84.9,76.1,29.85,SE,143,2.6,5.0,75,0.00,CLR,,0.00,WeatherDisplay:10.37,2013-10-19 20:29:00,
2013-10-19 16:34:00,84.8,76.4,29.86,SSW,210,2.1,4.6,76,0.00,CLR,,0.00,WeatherDisplay:10.37,2013-10-19 20:34:00,
2013-10-19 16:39:00,84.6,76.6,29.85,South,180,3.1,5.8,77,0.00,CLR,,0.00,WeatherDisplay:10.37,2013-10-19 20:39:00,
2013-10-19 16:44:00,84.3,76.7,29.85,SSW,211,0.6,1.2,78,0.00,CLR,,0.00,WeatherDisplay:10.37,2013-10-19 20:44:00,
2013-10-19 16:49:00,84.2,76.2,29.85,SSW,202,1.8,3.5,77,0.00,CLR,,0.00,WeatherDisplay:10.37,2013-10-19 20:49:00,
2013-10-19 16:54:00,83.5,75.9,29.86,SW,218,4.3,8.1,78,0.00,CLR,,0.00,WeatherDisplay:10.37,2013-10-19 20:54:00,
2013-10-19 16:59:00,83.1,76.3,29.86,SW,219,1.4,3.5,80,0.00,CLR,,0.00,WeatherDisplay:10.37,2013-10-19 20:59:00,
2013-10-19 17:04:00,82.7,76.3,29.86,SW,221,1.4,4.6,81,0.00,SCT,,0.00,WeatherDisplay:10.37,2013-10-19 21:04:00,
2013-10-19 17:09:00,82.3,76.3,29.85,SSW,200,2.1,4.6,82,0.00,SCT,,0.00,WeatherDisplay:10.37,2013-10-19 21:09:00,
2013-10-19 17:14:00,82.0,76.0,29.86,SSW,208,0.4,6.9,82,0.00,SCT,,0.00,WeatherDisplay:10.37,2013-10-19 21:14:00,
2013-10-19 17:19:00,81.9,75.9,29.86,SW,220,2.5,5.8,82,0.00,SCT,,0.00,WeatherDisplay:10.37,2013-10-19 21:19:00,
2013-10-19 17:24:00,81.7,76.0,29.86,SW,231,2.5,3.5,83,0.00,SCT,,0.00,WeatherDisplay:10.37,2013-10-19 21:24:00,
2013-10-19 17:29:00,81.7,76.0,29.86,WSW,246,1.5,3.5,83,0.00,SCT,,0.00,WeatherDisplay:10.37,2013-10-19 21:29:00,
2013-10-19 17:34:00,81.7,76.0,29.86,SSW,203,2.1,5.8,83,0.00,SCT,,0.00,WeatherDisplay:10.37,2013-10-19 21:34:00,
2013-10-19 17:39:00,81.8,76.1,29.85,South,173,0.6,2.0,83,0.00,SCT,,0.00,WeatherDisplay:10.37,2013-10-19 21:39:00,
2013-10-19 17:44:00,82.0,76.3,29.86,WSW,249,1.0,3.5,83,0.00,SCT,,0.00,WeatherDisplay:10.37,2013-10-19 21:44:00,
2013-10-19 17:49:00,82.2,76.2,29.86,SSW,208,0.6,3.5,82,0.00,SCT,,0.00,WeatherDisplay:10.37,2013-10-19 21:49:00,
2013-10-19 17:54:00,82.3,76.3,29.86,West,281,0.4,2.3,82,0.00,SCT,,0.00,WeatherDisplay:10.37,2013-10-19 21:54:00,
2013-10-19 17:59:00,82.4,76.0,29.86,WSW,249,0.7,2.3,81,0.00,SCT,,0.00,WeatherDisplay:10.37,2013-10-19 21:59:00,
2013-10-19 18:04:00,82.3,76.3,29.86,SSW,208,0.5,2.3,82,0.00,FEW,,0.00,WeatherDisplay:10.37,2013-10-19 22:04:00,
2013-10-19 18:09:00,82.2,76.2,29.86,WNW,288,0.9,2.3,82,0.00,FEW,,0.00,WeatherDisplay:10.37,2013-10-19 22:09:00,
2013-10-19 18:14:00,82.0,76.0,29.86,West,268,1.1,2.3,82,0.00,FEW,,0.00,WeatherDisplay:10.37,2013-10-19 22:14:00,
2013-10-19 18:19:00,81.8,76.1,29.86,WSW,255,0.2,2.3,83,0.00,FEW,,0.00,WeatherDisplay:10.37,2013-10-19 22:19:00,
2013-10-19 18:24:00,81.4,75.7,29.86,NNW,338,0.6,1.2,83,0.00,FEW,,0.00,WeatherDisplay:10.37,2013-10-19 22:24:00,
2013-10-19 18:29:00,80.7,75.4,29.86,West,280,0.2,1.2,84,0.00,FEW,,0.00,WeatherDisplay:10.37,2013-10-19 22:29:00,
2013-10-19 18:34:00,80.4,75.5,29.86,West,259,0.6,1.2,85,0.00,FEW,,0.00,WeatherDisplay:10.37,2013-10-19 22:34:00,
2013-10-19 18:39:00,80.3,75.4,29.86,SW,215,0.0,1.2,85,0.00,FEW,,0.00,WeatherDisplay:10.37,2013-10-19 22:39:00,
2013-10-19 18:44:00,80.2,75.3,29.86,WSW,249,0.0,0.0,85,0.00,FEW,,0.00,WeatherDisplay:10.37,2013-10-19 22:44:00,
2013-10-19 18:49:00,80.1,75.2,29.87,West,273,0.0,0.0,85,0.00,FEW,,0.00,WeatherDisplay:10.37,2013-10-19 22:49:00,
2013-10-19 18:54:00,79.9,75.3,29.87,WSW,246,0.0,0.0,86,0.00,FEW,,0.00,WeatherDisplay:10.37,2013-10-19 22:54:00,
2013-10-19 18:59:00,79.8,75.2,29.87,SW,222,1.6,2.3,86,0.00,FEW,,0.00,WeatherDisplay:10.37,2013-10-19 22:59:00,
2013-10-19 19:04:00,79.7,75.1,29.87,SW,231,1.0,2.0,86,0.00,SCT,,0.00,WeatherDisplay:10.37,2013-10-19 23:04:00,
2013-10-19 19:09:00,79.7,75.5,29.87,SW,233,0.0,0.0,87,0.00,SCT,,0.00,WeatherDisplay:10.37,2013-10-19 23:09:00,
2013-10-19 19:14:00,79.6,75.4,29.87,West,276,0.2,0.0,87,0.00,SCT,,0.00,WeatherDisplay:10.37,2013-10-19 23:14:00,
2013-10-19 19:19:00,79.5,75.3,29.87,WNW,298,0.1,2.3,87,0.00,SCT,,0.00,WeatherDisplay:10.37,2013-10-19 23:19:00,
2013-10-19 19:24:00,79.4,75.2,29.87,WNW,294,0.0,0.0,87,0.00,SCT,,0.00,WeatherDisplay:10.37,2013-10-19 23:24:00,
2013-10-19 19:29:00,79.3,75.1,29.88,SW,232,0.0,0.0,87,0.00,SCT,,0.00,WeatherDisplay:10.37,2013-10-19 23:29:00,
2013-10-19 19:34:00,79.2,75.0,29.88,SW,227,0.0,0.0,87,0.00,SCT,,0.00,WeatherDisplay:10.37,2013-10-19 23:34:00,
2013-10-19 19:39:00,79.1,74.9,29.88,WSW,245,0.0,0.0,87,0.00,SCT,,0.00,WeatherDisplay:10.37,2013-10-19 23:39:00,
2013-10-19 19:44:00,79.0,74.8,29.88,SW,232,0.0,0.0,87,0.00,SCT,,0.00,WeatherDisplay:10.37,2013-10-19 23:44:00,
2013-10-19 19:49:00,79.0,75.1,29.88,SSW,205,0.0,0.0,88,0.00,SCT,,0.00,WeatherDisplay:10.37,2013-10-19 23:49:00,
2013-10-19 19:54:00,79.0,75.1,29.88,SW,222,0.1,0.0,88,0.00,SCT,,0.00,WeatherDisplay:10.37,2013-10-19 23:54:00,
2013-10-19 19:59:00,79.0,74.8,29.89,West,264,0.0,0.0,87,0.00,SCT,,0.00,WeatherDisplay:10.37,2013-10-19 23:59:00,
2013-10-19 20:04:00,79.0,75.1,29.89,West,264,0.0,0.0,88,0.00,-RA,,0.00,WeatherDisplay:10.37,2013-10-20 00:04:00,
2013-10-19 20:09:00,79.0,75.1,29.89,West,264,0.0,0.0,88,0.00,-RA,,0.00,WeatherDisplay:10.37,2013-10-20 00:09:00,
2013-10-19 20:14:00,79.0,74.8,29.89,NW,307,0.4,1.0,87,0.00,-RA,,0.00,WeatherDisplay:10.37,2013-10-20 00:14:00,
2013-10-19 20:19:00,79.0,74.8,29.89,WNW,298,0.0,0.0,87,0.00,-RA,,0.00,WeatherDisplay:10.37,2013-10-20 00:19:00,
2013-10-19 20:24:00,78.9,75.0,29.89,WNW,298,0.0,0.0,88,0.00,-RA,,0.00,WeatherDisplay:10.37,2013-10-20 00:24:00,
2013-10-19 20:29:00,78.8,74.9,29.89,SW,233,0.7,3.5,88,0.00,-RA,,0.00,WeatherDisplay:10.37,2013-10-20 00:29:00,
2013-10-19 20:34:00,78.4,74.9,29.89,West,260,0.0,1.2,89,0.00,-RA,,0.00,WeatherDisplay:10.37,2013-10-20 00:34:00,
2013-10-19 20:39:00,78.0,74.8,29.89,WNW,293,0.0,1.2,90,0.00,-RA,,0.00,WeatherDisplay:10.37,2013-10-20 00:39:00,
2013-10-19 20:44:00,77.7,74.9,29.89,South,184,0.3,1.2,91,0.00,-RA,,0.00,WeatherDisplay:10.37,2013-10-20 00:44:00,
2013-10-19 20:49:00,77.6,75.1,29.89,West,276,0.0,0.0,92,0.01,-RA,,0.01,WeatherDisplay:10.37,2013-10-20 00:49:00,
2013-10-19 20:54:00,77.4,74.9,29.89,WNW,288,0.0,1.2,92,0.01,-RA,,0.01,WeatherDisplay:10.37,2013-10-20 00:54:00,
2013-10-19 20:59:00,77.3,75.1,29.89,SSW,200,0.0,0.0,93,0.01,-RA,,0.01,WeatherDisplay:10.37,2013-10-20 00:59:00,
2013-10-19 21:04:00,77.2,75.3,29.89,SSW,201,0.0,0.0,94,0.01,OVC,,0.01,WeatherDisplay:10.37,2013-10-20 01:04:00,
2013-10-19 21:09:00,77.1,75.2,29.89,West,259,0.0,0.0,94,0.01,OVC,,0.01,WeatherDisplay:10.37,2013-10-20 01:09:00,
2013-10-19 21:14:00,77.0,75.1,29.89,West,259,0.0,0.0,94,0.01,OVC,,0.01,WeatherDisplay:10.37,2013-10-20 01:14:00,
2013-10-19 21:19:00,77.0,75.1,29.89,NW,312,0.0,0.0,94,0.01,OVC,,0.01,WeatherDisplay:10.37,2013-10-20 01:19:00,
2013-10-19 21:24:00,76.9,75.0,29.89,NW,311,0.0,0.0,94,0.01,OVC,,0.01,WeatherDisplay:10.37,2013-10-20 01:24:00,
2013-10-19 21:29:00,76.8,74.9,29.89,WNW,285,0.0,0.0,94,0.01,OVC,,0.01,WeatherDisplay:10.37,2013-10-20 01:29:00,
2013-10-19 21:34:00,76.7,75.2,29.89,WNW,285,0.0,0.0,95,0.01,OVC,,0.01,WeatherDisplay:10.37,2013-10-20 01:34:00,
2013-10-19 21:39:00,76.6,75.1,29.89,West,276,0.0,0.0,95,0.01,OVC,,0.01,WeatherDisplay:10.37,2013-10-20 01:39:00,
2013-10-19 21:44:00,76.4,74.9,29.89,West,274,0.0,0.0,95,0.01,OVC,,0.01,WeatherDisplay:10.37,2013-10-20 01:44:00,
2013-10-19 21:49:00,76.2,74.7,29.89,West,276,0.0,0.0,95,0.00,OVC,,0.01,WeatherDisplay:10.37,2013-10-20 01:49:00,
2013-10-19 21:54:00,76.1,74.6,29.89,West,276,0.0,0.0,95,0.00,OVC,,0.01,WeatherDisplay:10.37,2013-10-20 01:54:00,
2013-10-19 21:59:00,76.0,74.5,29.89,West,276,0.0,0.0,95,0.00,OVC,,0.01,WeatherDisplay:10.37,2013-10-20 01:59:00,
2013-10-19 22:04:00,75.9,74.4,29.89,West,274,0.0,0.0,95,0.00,BKN,,0.01,WeatherDisplay:10.37,2013-10-20 02:04:00,
2013-10-19 22:09:00,75.8,74.3,29.89,West,276,0.0,0.0,95,0.00,BKN,,0.01,WeatherDisplay:10.37,2013-10-20 02:09:00,
2013-10-19 22:14:00,75.9,74.4,29.89,West,276,0.0,0.0,95,0.00,BKN,,0.01,WeatherDisplay:10.37,2013-10-20 02:14:00,
2013-10-19 22:19:00,75.9,74.4,29.90,West,276,0.0,0.0,95,0.00,BKN,,0.01,WeatherDisplay:10.37,2013-10-20 02:19:00,
2013-10-19 22:24:00,76.0,74.5,29.89,West,275,0.0,0.0,95,0.00,BKN,,0.01,WeatherDisplay:10.37,2013-10-20 02:24:00,
2013-10-19 22:29:00,75.9,74.4,29.89,West,276,0.0,0.0,95,0.00,BKN,,0.01,WeatherDisplay:10.37,2013-10-20 02:29:00,
2013-10-19 22:34:00,75.8,74.3,29.89,West,276,0.0,0.0,95,0.00,BKN,,0.01,WeatherDisplay:10.37,2013-10-20 02:34:00,
2013-10-19 22:39:00,75.6,74.1,29.89,West,276,0.0,0.0,95,0.00,BKN,,0.01,WeatherDisplay:10.37,2013-10-20 02:39:00,
2013-10-19 22:45:00,75.5,74.0,29.89,West,276,0.0,0.0,95,0.00,BKN,,0.01,WeatherDisplay:10.37,2013-10-20 02:45:00,
2013-10-19 22:50:00,75.5,74.0,29.89,West,276,0.0,0.0,95,0.00,BKN,,0.01,WeatherDisplay:10.37,2013-10-20 02:50:00,
2013-10-19 22:55:00,75.5,74.0,29.89,West,276,0.0,0.0,95,0.00,BKN,,0.01,WeatherDisplay:10.37,2013-10-20 02:55:00,
2013-10-19 23:00:00,75.4,74.2,29.89,West,276,0.0,0.0,96,0.00,BKN,,0.01,WeatherDisplay:10.37,2013-10-20 03:00:00,
2013-10-19 23:05:00,75.4,74.2,29.90,West,276,0.0,0.0,96,0.00,OVC,,0.01,WeatherDisplay:10.37,2013-10-20 03:05:00,
2013-10-19 23:10:00,75.3,74.1,29.89,West,276,0.0,0.0,96,0.00,OVC,,0.01,WeatherDisplay:10.37,2013-10-20 03:10:00,
2013-10-19 23:15:00,75.2,74.0,29.89,West,276,0.0,0.0,96,0.00,OVC,,0.01,WeatherDisplay:10.37,2013-10-20 03:15:00,
2013-10-19 23:20:00,75.2,74.0,29.89,West,275,0.0,0.0,96,0.00,OVC,,0.01,WeatherDisplay:10.37,2013-10-20 03:20:00,
2013-10-19 23:25:00,74.9,73.7,29.89,West,276,0.0,0.0,96,0.00,SCT,,0.01,WeatherDisplay:10.37,2013-10-20 03:25:00,
2013-10-19 23:30:00,74.8,73.6,29.89,West,276,0.0,0.0,96,0.00,SCT,,0.01,WeatherDisplay:10.37,2013-10-20 03:30:00,
2013-10-19 23:35:00,74.8,73.6,29.89,West,276,0.0,0.0,96,0.00,SCT,,0.01,WeatherDisplay:10.37,2013-10-20 03:35:00,
2013-10-19 23:40:00,74.9,73.7,29.89,West,276,0.0,0.0,96,0.00,SCT,,0.01,WeatherDisplay:10.37,2013-10-20 03:40:00,
2013-10-19 23:45:00,74.8,73.6,29.90,West,276,0.0,0.0,96,0.00,SCT,,0.01,WeatherDisplay:10.37,2013-10-20 03:45:00,
2013-10-19 23:50:00,74.8,73.6,29.89,West,276,0.0,0.0,96,0.00,SCT,,0.01,WeatherDisplay:10.37,2013-10-20 03:50:00,
2013-10-19 23:55:00,74.6,73.4,29.89,West,276,0.0,0.0,96,0.00,SCT,,0.01,WeatherDisplay:10.37,2013-10-20 03:55:00,